sensor_id;sensor_type;location;lat;lon;timestamp;temperature;humidity
9881;DHT22;4979;51.014;6.678;2022-09-09T00:04:29;17.60;99.90
9881;DHT22;4979;51.014;6.678;2022-09-09T00:09:47;17.60;99.90
9881;DHT22;4979;51.014;6.678;2022-09-09T00:12:32;17.50;99.90
9881;DHT22;4979;51.014;6.678;2022-09-09T00:15:19;17.40;99.90
9881;DHT22;4979;51.014;6.678;2022-09-09T00:23:30;17.50;99.90
9881;DHT22;4979;51.014;6.678;2022-09-09T00:26:16;17.50;99.90
9881;DHT22;4979;51.014;6.678;2022-09-09T00:31:32;17.50;99.90
9881;DHT22;4979;51.014;6.678;2022-09-09T00:34:19;17.60;99.90
9881;DHT22;4979;51.014;6.678;2022-09-09T00:36:48;17.60;99.90
9881;DHT22;4979;51.014;6.678;2022-09-09T00:39:34;17.70;99.90
9881;DHT22;4979;51.014;6.678;2022-09-09T00:42:40;17.70;99.90
9881;DHT22;4979;51.014;6.678;2022-09-09T00:45:11;17.60;99.90
9881;DHT22;4979;51.014;6.678;2022-09-09T00:47:53;17.60;99.90
9881;DHT22;4979;51.014;6.678;2022-09-09T00:55:45;17.40;99.90
9881;DHT22;4979;51.014;6.678;2022-09-09T00:58:13;17.50;99.90
9881;DHT22;4979;51.014;6.678;2022-09-09T01:00:45;17.40;99.90
9881;DHT22;4979;51.014;6.678;2022-09-09T01:03:37;17.50;99.90
9881;DHT22;4979;51.014;6.678;2022-09-09T01:06:20;17.40;99.90
9881;DHT22;4979;51.014;6.678;2022-09-09T01:11:58;17.30;99.90
9881;DHT22;4979;51.014;6.678;2022-09-09T01:14:45;17.30;99.90
9881;DHT22;4979;51.014;6.678;2022-09-09T01:17:25;17.30;99.90
9881;DHT22;4979;51.014;6.678;2022-09-09T01:22:44;17.30;99.90
9881;DHT22;4979;51.014;6.678;2022-09-09T01:28:11;17.10;99.90
9881;DHT22;4979;51.014;6.678;2022-09-09T01:30:40;17.00;99.90
9881;DHT22;4979;51.014;6.678;2022-09-09T01:33:15;17.10;99.90
9881;DHT22;4979;51.014;6.678;2022-09-09T01:38:10;17.00;99.90
9881;DHT22;4979;51.014;6.678;2022-09-09T01:40:35;17.10;99.90
9881;DHT22;4979;51.014;6.678;2022-09-09T01:43:02;17.10;99.90
9881;DHT22;4979;51.014;6.678;2022-09-09T01:45:29;17.00;99.90
9881;DHT22;4979;51.014;6.678;2022-09-09T01:47:55;17.00;99.90
9881;DHT22;4979;51.014;6.678;2022-09-09T01:50:22;16.90;99.90
9881;DHT22;4979;51.014;6.678;2022-09-09T01:52:56;17.00;99.90
9881;DHT22;4979;51.014;6.678;2022-09-09T01:55:33;17.00;99.90
9881;DHT22;4979;51.014;6.678;2022-09-09T01:58:34;17.00;99.90
9881;DHT22;4979;51.014;6.678;2022-09-09T02:01:08;17.10;99.90
9881;DHT22;4979;51.014;6.678;2022-09-09T02:03:39;17.10;99.90
9881;DHT22;4979;51.014;6.678;2022-09-09T02:08:44;17.00;99.90
9881;DHT22;4979;51.014;6.678;2022-09-09T02:11:16;17.00;99.90
9881;DHT22;4979;51.014;6.678;2022-09-09T02:13:44;17.00;99.90
9881;DHT22;4979;51.014;6.678;2022-09-09T02:19:00;17.00;99.90
9881;DHT22;4979;51.014;6.678;2022-09-09T02:21:29;16.90;99.90
9881;DHT22;4979;51.014;6.678;2022-09-09T02:23:57;16.90;99.90
9881;DHT22;4979;51.014;6.678;2022-09-09T02:26:23;16.90;99.90
9881;DHT22;4979;51.014;6.678;2022-09-09T02:28:51;16.90;99.90
9881;DHT22;4979;51.014;6.678;2022-09-09T02:31:20;16.90;99.90
9881;DHT22;4979;51.014;6.678;2022-09-09T02:33:52;16.90;99.90
9881;DHT22;4979;51.014;6.678;2022-09-09T02:36:20;16.90;99.90
9881;DHT22;4979;51.014;6.678;2022-09-09T02:38:47;17.00;99.90
9881;DHT22;4979;51.014;6.678;2022-09-09T02:41:20;17.00;99.90
9881;DHT22;4979;51.014;6.678;2022-09-09T02:43:47;16.90;99.90
9881;DHT22;4979;51.014;6.678;2022-09-09T02:46:18;16.90;99.90
9881;DHT22;4979;51.014;6.678;2022-09-09T02:49:02;17.00;99.90
9881;DHT22;4979;51.014;6.678;2022-09-09T02:56:49;17.00;99.90
9881;DHT22;4979;51.014;6.678;2022-09-09T02:59:16;16.90;99.90
9881;DHT22;4979;51.014;6.678;2022-09-09T03:01:43;16.90;99.90
9881;DHT22;4979;51.014;6.678;2022-09-09T03:04:09;17.00;99.90
9881;DHT22;4979;51.014;6.678;2022-09-09T03:06:35;16.90;99.90
9881;DHT22;4979;51.014;6.678;2022-09-09T03:09:01;16.90;99.90
9881;DHT22;4979;51.014;6.678;2022-09-09T03:11:27;16.90;99.90
9881;DHT22;4979;51.014;6.678;2022-09-09T03:13:53;17.00;99.90
9881;DHT22;4979;51.014;6.678;2022-09-09T03:16:21;17.00;99.90
9881;DHT22;4979;51.014;6.678;2022-09-09T03:18:47;17.00;99.90
9881;DHT22;4979;51.014;6.678;2022-09-09T03:21:12;16.90;99.90
9881;DHT22;4979;51.014;6.678;2022-09-09T03:23:39;16.90;99.90
9881;DHT22;4979;51.014;6.678;2022-09-09T03:26:04;17.00;99.90
9881;DHT22;4979;51.014;6.678;2022-09-09T03:28:30;17.00;99.90
9881;DHT22;4979;51.014;6.678;2022-09-09T03:31:04;17.10;99.90
9881;DHT22;4979;51.014;6.678;2022-09-09T03:33:30;17.10;99.90
9881;DHT22;4979;51.014;6.678;2022-09-09T03:35:56;17.00;99.90
9881;DHT22;4979;51.014;6.678;2022-09-09T03:38:23;17.00;99.90
9881;DHT22;4979;51.014;6.678;2022-09-09T03:40:50;17.00;99.90
9881;DHT22;4979;51.014;6.678;2022-09-09T03:43:16;17.00;99.90
9881;DHT22;4979;51.014;6.678;2022-09-09T03:45:46;17.10;99.90
9881;DHT22;4979;51.014;6.678;2022-09-09T03:48:16;17.10;99.90
9881;DHT22;4979;51.014;6.678;2022-09-09T03:50:49;17.10;99.90
9881;DHT22;4979;51.014;6.678;2022-09-09T03:53:16;17.10;99.90
9881;DHT22;4979;51.014;6.678;2022-09-09T03:55:50;17.00;99.90
9881;DHT22;4979;51.014;6.678;2022-09-09T03:58:18;17.10;99.90
9881;DHT22;4979;51.014;6.678;2022-09-09T04:01:13;17.10;99.90
9881;DHT22;4979;51.014;6.678;2022-09-09T04:03:38;17.10;99.90
9881;DHT22;4979;51.014;6.678;2022-09-09T04:06:05;17.10;99.90
9881;DHT22;4979;51.014;6.678;2022-09-09T04:08:33;17.10;99.90
9881;DHT22;4979;51.014;6.678;2022-09-09T04:10:59;17.10;99.90
9881;DHT22;4979;51.014;6.678;2022-09-09T04:13:25;17.10;99.90
9881;DHT22;4979;51.014;6.678;2022-09-09T04:15:53;17.20;99.90
9881;DHT22;4979;51.014;6.678;2022-09-09T04:18:19;17.20;99.90
9881;DHT22;4979;51.014;6.678;2022-09-09T04:20:49;17.20;99.90
9881;DHT22;4979;51.014;6.678;2022-09-09T04:23:16;17.20;99.90
9881;DHT22;4979;51.014;6.678;2022-09-09T04:25:51;16.60;99.90
9881;DHT22;4979;51.014;6.678;2022-09-09T04:28:18;17.20;99.90
9881;DHT22;4979;51.014;6.678;2022-09-09T04:30:45;17.20;99.90
9881;DHT22;4979;51.014;6.678;2022-09-09T04:33:11;17.20;99.90
9881;DHT22;4979;51.014;6.678;2022-09-09T04:35:38;17.20;99.90
9881;DHT22;4979;51.014;6.678;2022-09-09T04:38:04;17.20;99.90
9881;DHT22;4979;51.014;6.678;2022-09-09T04:40:31;17.20;99.90
9881;DHT22;4979;51.014;6.678;2022-09-09T04:43:00;17.30;99.90
9881;DHT22;4979;51.014;6.678;2022-09-09T04:45:26;17.30;99.90
9881;DHT22;4979;51.014;6.678;2022-09-09T04:47:52;17.30;99.90
9881;DHT22;4979;51.014;6.678;2022-09-09T04:50:18;17.30;99.90
9881;DHT22;4979;51.014;6.678;2022-09-09T04:52:44;17.30;99.90
9881;DHT22;4979;51.014;6.678;2022-09-09T04:55:10;17.30;99.90
9881;DHT22;4979;51.014;6.678;2022-09-09T04:57:38;17.40;99.90
9881;DHT22;4979;51.014;6.678;2022-09-09T05:00:05;17.40;99.90
9881;DHT22;4979;51.014;6.678;2022-09-09T05:02:31;17.40;99.90
9881;DHT22;4979;51.014;6.678;2022-09-09T05:04:57;17.40;99.90
9881;DHT22;4979;51.014;6.678;2022-09-09T05:07:23;17.40;99.90
9881;DHT22;4979;51.014;6.678;2022-09-09T05:09:49;17.40;99.90
9881;DHT22;4979;51.014;6.678;2022-09-09T05:12:15;17.40;99.90
9881;DHT22;4979;51.014;6.678;2022-09-09T05:14:42;17.40;99.90
9881;DHT22;4979;51.014;6.678;2022-09-09T05:17:08;17.40;99.90
9881;DHT22;4979;51.014;6.678;2022-09-09T05:19:34;17.40;99.90
9881;DHT22;4979;51.014;6.678;2022-09-09T05:21:59;17.20;99.90
9881;DHT22;4979;51.014;6.678;2022-09-09T05:24:26;17.20;99.90
9881;DHT22;4979;51.014;6.678;2022-09-09T05:26:52;17.30;99.90
9881;DHT22;4979;51.014;6.678;2022-09-09T05:29:17;17.30;99.90
9881;DHT22;4979;51.014;6.678;2022-09-09T05:31:47;17.30;99.90
9881;DHT22;4979;51.014;6.678;2022-09-09T05:34:13;17.30;99.90
9881;DHT22;4979;51.014;6.678;2022-09-09T05:36:38;17.30;99.90
9881;DHT22;4979;51.014;6.678;2022-09-09T05:39:04;17.40;99.90
9881;DHT22;4979;51.014;6.678;2022-09-09T05:41:29;17.40;99.90
9881;DHT22;4979;51.014;6.678;2022-09-09T05:43:57;17.40;99.90
9881;DHT22;4979;51.014;6.678;2022-09-09T05:46:24;17.50;99.90
9881;DHT22;4979;51.014;6.678;2022-09-09T05:48:51;17.50;99.90
9881;DHT22;4979;51.014;6.678;2022-09-09T05:51:19;17.50;99.90
9881;DHT22;4979;51.014;6.678;2022-09-09T05:53:47;17.50;99.90
9881;DHT22;4979;51.014;6.678;2022-09-09T05:58:43;17.60;99.90
9881;DHT22;4979;51.014;6.678;2022-09-09T06:01:29;17.60;99.90
9881;DHT22;4979;51.014;6.678;2022-09-09T06:03:56;17.70;99.90
9881;DHT22;4979;51.014;6.678;2022-09-09T06:06:23;17.60;99.90
9881;DHT22;4979;51.014;6.678;2022-09-09T06:08:53;17.60;99.90
9881;DHT22;4979;51.014;6.678;2022-09-09T06:11:21;17.60;99.90
9881;DHT22;4979;51.014;6.678;2022-09-09T06:13:47;17.60;99.90
9881;DHT22;4979;51.014;6.678;2022-09-09T06:16:18;17.60;99.90
9881;DHT22;4979;51.014;6.678;2022-09-09T06:18:44;17.60;99.90
9881;DHT22;4979;51.014;6.678;2022-09-09T06:21:20;17.60;99.90
9881;DHT22;4979;51.014;6.678;2022-09-09T06:23:47;17.60;99.90
9881;DHT22;4979;51.014;6.678;2022-09-09T06:26:19;17.60;99.90
9881;DHT22;4979;51.014;6.678;2022-09-09T06:28:49;17.70;99.90
9881;DHT22;4979;51.014;6.678;2022-09-09T06:31:19;17.70;99.90
9881;DHT22;4979;51.014;6.678;2022-09-09T06:33:51;17.70;99.90
9881;DHT22;4979;51.014;6.678;2022-09-09T06:36:25;17.70;99.90
9881;DHT22;4979;51.014;6.678;2022-09-09T06:38:51;17.80;99.90
9881;DHT22;4979;51.014;6.678;2022-09-09T06:41:19;17.90;99.90
9881;DHT22;4979;51.014;6.678;2022-09-09T06:43:46;18.10;99.90
9881;DHT22;4979;51.014;6.678;2022-09-09T06:46:17;18.30;99.90
9881;DHT22;4979;51.014;6.678;2022-09-09T06:48:44;18.40;99.90
9881;DHT22;4979;51.014;6.678;2022-09-09T06:51:20;18.50;99.90
9881;DHT22;4979;51.014;6.678;2022-09-09T06:53:53;18.60;99.90
9881;DHT22;4979;51.014;6.678;2022-09-09T06:56:25;18.60;99.90
9881;DHT22;4979;51.014;6.678;2022-09-09T06:58:52;18.60;99.90
9881;DHT22;4979;51.014;6.678;2022-09-09T07:01:24;18.60;99.90
9881;DHT22;4979;51.014;6.678;2022-09-09T07:03:52;18.70;99.90
9881;DHT22;4979;51.014;6.678;2022-09-09T07:06:23;18.60;99.90
9881;DHT22;4979;51.014;6.678;2022-09-09T07:08:54;18.70;99.90
9881;DHT22;4979;51.014;6.678;2022-09-09T07:11:22;18.70;99.90
9881;DHT22;4979;51.014;6.678;2022-09-09T07:13:48;18.80;99.90
9881;DHT22;4979;51.014;6.678;2022-09-09T07:16:18;19.10;99.90
9881;DHT22;4979;51.014;6.678;2022-09-09T07:18:46;19.10;99.90
9881;DHT22;4979;51.014;6.678;2022-09-09T07:21:13;19.10;99.90
9881;DHT22;4979;51.014;6.678;2022-09-09T07:23:39;19.30;99.90
9881;DHT22;4979;51.014;6.678;2022-09-09T07:26:16;19.40;99.90
9881;DHT22;4979;51.014;6.678;2022-09-09T07:28:42;19.40;99.90
9881;DHT22;4979;51.014;6.678;2022-09-09T07:31:16;19.30;99.90
9881;DHT22;4979;51.014;6.678;2022-09-09T07:33:43;19.30;99.90
9881;DHT22;4979;51.014;6.678;2022-09-09T07:36:14;19.40;99.90
9881;DHT22;4979;51.014;6.678;2022-09-09T07:38:45;19.40;99.90
9881;DHT22;4979;51.014;6.678;2022-09-09T07:41:17;19.40;99.90
9881;DHT22;4979;51.014;6.678;2022-09-09T07:43:45;19.30;99.90
9881;DHT22;4979;51.014;6.678;2022-09-09T07:46:12;19.20;99.90
9881;DHT22;4979;51.014;6.678;2022-09-09T07:48:43;19.20;99.90
9881;DHT22;4979;51.014;6.678;2022-09-09T07:51:11;19.20;99.90
9881;DHT22;4979;51.014;6.678;2022-09-09T07:53:38;19.20;99.90
9881;DHT22;4979;51.014;6.678;2022-09-09T07:56:06;19.00;99.90
9881;DHT22;4979;51.014;6.678;2022-09-09T07:58:32;19.10;99.90
9881;DHT22;4979;51.014;6.678;2022-09-09T08:00:58;19.20;99.90
9881;DHT22;4979;51.014;6.678;2022-09-09T08:03:24;19.30;99.90
9881;DHT22;4979;51.014;6.678;2022-09-09T08:05:49;19.40;99.90
9881;DHT22;4979;51.014;6.678;2022-09-09T08:08:15;19.60;99.90
9881;DHT22;4979;51.014;6.678;2022-09-09T08:10:42;19.60;99.90
9881;DHT22;4979;51.014;6.678;2022-09-09T08:13:08;19.50;99.90
9881;DHT22;4979;51.014;6.678;2022-09-09T08:15:34;19.50;99.90
9881;DHT22;4979;51.014;6.678;2022-09-09T08:17:59;19.30;99.90
9881;DHT22;4979;51.014;6.678;2022-09-09T08:20:25;19.50;99.90
9881;DHT22;4979;51.014;6.678;2022-09-09T08:22:50;19.70;99.90
9881;DHT22;4979;51.014;6.678;2022-09-09T08:25:16;19.80;99.90
9881;DHT22;4979;51.014;6.678;2022-09-09T08:27:42;19.80;99.90
9881;DHT22;4979;51.014;6.678;2022-09-09T08:30:08;19.80;99.90
9881;DHT22;4979;51.014;6.678;2022-09-09T08:32:33;20.00;99.90
9881;DHT22;4979;51.014;6.678;2022-09-09T08:35:00;20.00;99.90
9881;DHT22;4979;51.014;6.678;2022-09-09T08:37:26;20.00;99.90
9881;DHT22;4979;51.014;6.678;2022-09-09T08:39:51;20.00;99.90
9881;DHT22;4979;51.014;6.678;2022-09-09T08:44:57;20.10;99.90
9881;DHT22;4979;51.014;6.678;2022-09-09T08:50:28;20.10;99.90
9881;DHT22;4979;51.014;6.678;2022-09-09T08:55:46;19.90;99.90
9881;DHT22;4979;51.014;6.678;2022-09-09T08:58:17;19.80;99.90
9881;DHT22;4979;51.014;6.678;2022-09-09T09:11:25;19.80;99.90
9881;DHT22;4979;51.014;6.678;2022-09-09T09:13:55;19.80;99.90
9881;DHT22;4979;51.014;6.678;2022-09-09T09:16:38;19.80;99.90
9881;DHT22;4979;51.014;6.678;2022-09-09T09:19:05;19.90;99.90
9881;DHT22;4979;51.014;6.678;2022-09-09T09:21:45;20.10;99.90
9881;DHT22;4979;51.014;6.678;2022-09-09T09:27:21;20.00;99.90
9881;DHT22;4979;51.014;6.678;2022-09-09T09:29:51;20.10;99.90
9881;DHT22;4979;51.014;6.678;2022-09-09T09:32:21;20.40;99.90
9881;DHT22;4979;51.014;6.678;2022-09-09T09:35:12;20.50;99.90
9881;DHT22;4979;51.014;6.678;2022-09-09T09:37:40;20.50;99.90
9881;DHT22;4979;51.014;6.678;2022-09-09T09:40:14;20.30;99.90
9881;DHT22;4979;51.014;6.678;2022-09-09T09:43:00;20.20;99.90
9881;DHT22;4979;51.014;6.678;2022-09-09T09:45:42;20.40;99.90
9881;DHT22;4979;51.014;6.678;2022-09-09T09:48:11;20.40;99.90
9881;DHT22;4979;51.014;6.678;2022-09-09T09:50:51;20.80;99.90
9881;DHT22;4979;51.014;6.678;2022-09-09T09:53:22;20.80;99.90
9881;DHT22;4979;51.014;6.678;2022-09-09T09:56:01;20.80;99.90
9881;DHT22;4979;51.014;6.678;2022-09-09T09:58:29;20.90;99.90
9881;DHT22;4979;51.014;6.678;2022-09-09T10:00:57;20.60;99.90
9881;DHT22;4979;51.014;6.678;2022-09-09T10:03:31;20.60;99.90
9881;DHT22;4979;51.014;6.678;2022-09-09T10:05:57;20.60;99.90
9881;DHT22;4979;51.014;6.678;2022-09-09T10:08:27;21.10;99.90
9881;DHT22;4979;51.014;6.678;2022-09-09T10:22:32;21.00;99.90
9881;DHT22;4979;51.014;6.678;2022-09-09T10:25:28;21.10;99.90
9881;DHT22;4979;51.014;6.678;2022-09-09T10:30:58;21.20;99.90
9881;DHT22;4979;51.014;6.678;2022-09-09T10:34:02;21.40;99.90
9881;DHT22;4979;51.014;6.678;2022-09-09T10:36:32;21.30;99.90
9881;DHT22;4979;51.014;6.678;2022-09-09T10:39:06;21.00;99.90
9881;DHT22;4979;51.014;6.678;2022-09-09T10:41:47;21.00;99.90
9881;DHT22;4979;51.014;6.678;2022-09-09T10:53:02;20.90;99.90
9881;DHT22;4979;51.014;6.678;2022-09-09T10:55:55;20.80;99.90
9881;DHT22;4979;51.014;6.678;2022-09-09T10:58:30;20.70;99.90
9881;DHT22;4979;51.014;6.678;2022-09-09T11:01:03;20.70;99.90
9881;DHT22;4979;51.014;6.678;2022-09-09T11:03:34;20.60;99.90
9881;DHT22;4979;51.014;6.678;2022-09-09T11:06:09;20.50;99.90
9881;DHT22;4979;51.014;6.678;2022-09-09T11:08:38;20.40;99.90
9881;DHT22;4979;51.014;6.678;2022-09-09T11:11:21;20.20;99.90
9881;DHT22;4979;51.014;6.678;2022-09-09T11:14:01;20.30;99.90
9881;DHT22;4979;51.014;6.678;2022-09-09T11:17:04;20.30;99.90
9881;DHT22;4979;51.014;6.678;2022-09-09T11:19:34;20.40;99.90
9881;DHT22;4979;51.014;6.678;2022-09-09T11:24:41;20.60;99.90
9881;DHT22;4979;51.014;6.678;2022-09-09T11:27:20;20.80;99.90
9881;DHT22;4979;51.014;6.678;2022-09-09T11:38:50;20.50;99.90
9881;DHT22;4979;51.014;6.678;2022-09-09T11:41:18;20.40;99.90
9881;DHT22;4979;51.014;6.678;2022-09-09T11:43:48;20.50;99.90
9881;DHT22;4979;51.014;6.678;2022-09-09T11:46:17;20.50;99.90
9881;DHT22;4979;51.014;6.678;2022-09-09T11:48:45;20.50;99.90
9881;DHT22;4979;51.014;6.678;2022-09-09T11:51:12;20.30;99.90
9881;DHT22;4979;51.014;6.678;2022-09-09T11:54:01;20.40;99.90
9881;DHT22;4979;51.014;6.678;2022-09-09T11:58:57;20.50;99.90
9881;DHT22;4979;51.014;6.678;2022-09-09T12:04:14;20.80;99.90
9881;DHT22;4979;51.014;6.678;2022-09-09T12:06:45;21.00;99.90
9881;DHT22;4979;51.014;6.678;2022-09-09T12:14:44;21.40;99.90
9881;DHT22;4979;51.014;6.678;2022-09-09T12:17:24;21.50;99.90
9881;DHT22;4979;51.014;6.678;2022-09-09T12:20:11;21.30;99.90
9881;DHT22;4979;51.014;6.678;2022-09-09T12:23:13;21.20;99.90
9881;DHT22;4979;51.014;6.678;2022-09-09T12:32:07;20.60;99.90
9881;DHT22;4979;51.014;6.678;2022-09-09T12:39:59;19.00;99.90
9881;DHT22;4979;51.014;6.678;2022-09-09T12:42:26;19.30;99.90
9881;DHT22;4979;51.014;6.678;2022-09-09T12:44:53;19.90;99.90
9881;DHT22;4979;51.014;6.678;2022-09-09T12:47:22;20.10;99.90
9881;DHT22;4979;51.014;6.678;2022-09-09T12:49:50;20.30;99.90
9881;DHT22;4979;51.014;6.678;2022-09-09T12:52:26;20.50;99.90
9881;DHT22;4979;51.014;6.678;2022-09-09T12:54:52;20.60;99.90
9881;DHT22;4979;51.014;6.678;2022-09-09T12:57:19;20.70;99.90
9881;DHT22;4979;51.014;6.678;2022-09-09T12:59:47;21.00;99.90
9881;DHT22;4979;51.014;6.678;2022-09-09T13:02:22;21.00;99.90
9881;DHT22;4979;51.014;6.678;2022-09-09T13:04:48;21.10;99.90
9881;DHT22;4979;51.014;6.678;2022-09-09T13:07:16;20.90;99.90
9881;DHT22;4979;51.014;6.678;2022-09-09T13:09:46;20.80;99.90
9881;DHT22;4979;51.014;6.678;2022-09-09T13:12:22;20.80;99.90
9881;DHT22;4979;51.014;6.678;2022-09-09T13:14:50;20.80;99.90
9881;DHT22;4979;51.014;6.678;2022-09-09T13:17:23;21.00;99.90
9881;DHT22;4979;51.014;6.678;2022-09-09T13:19:50;21.40;99.90
9881;DHT22;4979;51.014;6.678;2022-09-09T13:22:30;21.50;99.90
9881;DHT22;4979;51.014;6.678;2022-09-09T13:27:39;22.10;99.90
9881;DHT22;4979;51.014;6.678;2022-09-09T13:32:47;21.70;99.90
9881;DHT22;4979;51.014;6.678;2022-09-09T13:35:23;22.00;99.90
9881;DHT22;4979;51.014;6.678;2022-09-09T13:37:49;21.90;99.90
9881;DHT22;4979;51.014;6.678;2022-09-09T13:40:20;22.20;99.90
9881;DHT22;4979;51.014;6.678;2022-09-09T13:42:50;21.80;99.90
9881;DHT22;4979;51.014;6.678;2022-09-09T13:45:20;21.90;99.90
9881;DHT22;4979;51.014;6.678;2022-09-09T13:47:45;22.30;99.90
9881;DHT22;4979;51.014;6.678;2022-09-09T13:50:20;22.30;99.90
9881;DHT22;4979;51.014;6.678;2022-09-09T13:52:53;22.30;99.90
9881;DHT22;4979;51.014;6.678;2022-09-09T13:55:20;22.30;99.90
9881;DHT22;4979;51.014;6.678;2022-09-09T13:57:52;22.90;99.90
9881;DHT22;4979;51.014;6.678;2022-09-09T14:00:18;23.10;99.90
9881;DHT22;4979;51.014;6.678;2022-09-09T14:02:43;23.00;99.90
9881;DHT22;4979;51.014;6.678;2022-09-09T14:05:10;23.00;99.90
9881;DHT22;4979;51.014;6.678;2022-09-09T14:07:37;22.90;99.90
9881;DHT22;4979;51.014;6.678;2022-09-09T14:10:04;22.80;99.90
9881;DHT22;4979;51.014;6.678;2022-09-09T14:12:30;22.70;99.90
9881;DHT22;4979;51.014;6.678;2022-09-09T14:14:56;22.30;99.90
9881;DHT22;4979;51.014;6.678;2022-09-09T14:17:21;22.10;99.90
9881;DHT22;4979;51.014;6.678;2022-09-09T14:19:47;22.00;99.90
9881;DHT22;4979;51.014;6.678;2022-09-09T14:22:13;21.60;99.90
9881;DHT22;4979;51.014;6.678;2022-09-09T14:24:39;21.30;99.90
9881;DHT22;4979;51.014;6.678;2022-09-09T14:27:04;21.20;99.90
9881;DHT22;4979;51.014;6.678;2022-09-09T14:29:30;21.10;99.90
9881;DHT22;4979;51.014;6.678;2022-09-09T14:31:55;20.90;99.90
9881;DHT22;4979;51.014;6.678;2022-09-09T14:34:21;20.70;99.90
9881;DHT22;4979;51.014;6.678;2022-09-09T14:36:46;20.50;99.90
9881;DHT22;4979;51.014;6.678;2022-09-09T14:39:12;20.40;99.90
9881;DHT22;4979;51.014;6.678;2022-09-09T14:41:38;20.40;99.90
9881;DHT22;4979;51.014;6.678;2022-09-09T14:44:03;20.30;99.90
9881;DHT22;4979;51.014;6.678;2022-09-09T14:46:29;20.20;99.90
9881;DHT22;4979;51.014;6.678;2022-09-09T14:48:55;20.20;99.90
9881;DHT22;4979;51.014;6.678;2022-09-09T14:51:24;20.20;99.90
9881;DHT22;4979;51.014;6.678;2022-09-09T14:53:54;20.50;99.90
9881;DHT22;4979;51.014;6.678;2022-09-09T14:56:22;20.60;99.90
9881;DHT22;4979;51.014;6.678;2022-09-09T14:58:49;20.70;99.90
9881;DHT22;4979;51.014;6.678;2022-09-09T15:01:17;20.80;99.90
9881;DHT22;4979;51.014;6.678;2022-09-09T15:03:50;20.90;99.90
9881;DHT22;4979;51.014;6.678;2022-09-09T15:06:16;21.00;99.90
9881;DHT22;4979;51.014;6.678;2022-09-09T15:08:43;20.80;99.90
9881;DHT22;4979;51.014;6.678;2022-09-09T15:11:10;20.80;99.90
9881;DHT22;4979;51.014;6.678;2022-09-09T15:13:37;20.70;99.90
9881;DHT22;4979;51.014;6.678;2022-09-09T15:16:04;20.80;99.90
9881;DHT22;4979;51.014;6.678;2022-09-09T15:18:31;20.70;99.90
9881;DHT22;4979;51.014;6.678;2022-09-09T15:20:57;20.80;99.90
9881;DHT22;4979;51.014;6.678;2022-09-09T15:23:23;20.40;99.90
9881;DHT22;4979;51.014;6.678;2022-09-09T15:25:55;19.90;99.90
9881;DHT22;4979;51.014;6.678;2022-09-09T15:28:22;19.70;99.90
9881;DHT22;4979;51.014;6.678;2022-09-09T15:30:49;19.60;99.90
9881;DHT22;4979;51.014;6.678;2022-09-09T15:33:15;19.90;99.90
9881;DHT22;4979;51.014;6.678;2022-09-09T15:35:41;20.00;99.90
9881;DHT22;4979;51.014;6.678;2022-09-09T15:38:07;20.00;99.90
9881;DHT22;4979;51.014;6.678;2022-09-09T15:40:32;20.30;99.90
9881;DHT22;4979;51.014;6.678;2022-09-09T15:42:58;20.50;99.90
9881;DHT22;4979;51.014;6.678;2022-09-09T15:45:24;20.30;99.90
9881;DHT22;4979;51.014;6.678;2022-09-09T15:47:50;20.30;99.90
9881;DHT22;4979;51.014;6.678;2022-09-09T15:50:15;20.30;99.90
9881;DHT22;4979;51.014;6.678;2022-09-09T15:52:41;20.30;99.90
9881;DHT22;4979;51.014;6.678;2022-09-09T15:55:07;20.20;99.90
9881;DHT22;4979;51.014;6.678;2022-09-09T15:57:36;20.00;99.90
9881;DHT22;4979;51.014;6.678;2022-09-09T16:00:03;19.80;99.90
9881;DHT22;4979;51.014;6.678;2022-09-09T16:02:30;19.80;99.90
9881;DHT22;4979;51.014;6.678;2022-09-09T16:04:56;19.80;99.90
9881;DHT22;4979;51.014;6.678;2022-09-09T16:07:22;19.60;99.90
9881;DHT22;4979;51.014;6.678;2022-09-09T16:09:48;19.50;99.90
9881;DHT22;4979;51.014;6.678;2022-09-09T16:12:16;19.40;99.90
9881;DHT22;4979;51.014;6.678;2022-09-09T16:14:42;19.30;99.90
9881;DHT22;4979;51.014;6.678;2022-09-09T16:17:08;19.40;99.90
9881;DHT22;4979;51.014;6.678;2022-09-09T16:19:34;19.50;99.90
9881;DHT22;4979;51.014;6.678;2022-09-09T16:22:00;19.50;99.90
9881;DHT22;4979;51.014;6.678;2022-09-09T16:24:26;19.50;99.90
9881;DHT22;4979;51.014;6.678;2022-09-09T16:26:53;19.50;99.90
9881;DHT22;4979;51.014;6.678;2022-09-09T16:29:20;19.40;99.90
9881;DHT22;4979;51.014;6.678;2022-09-09T16:31:47;19.40;99.90
9881;DHT22;4979;51.014;6.678;2022-09-09T16:34:14;19.50;99.90
9881;DHT22;4979;51.014;6.678;2022-09-09T16:36:41;19.50;99.90
9881;DHT22;4979;51.014;6.678;2022-09-09T16:39:09;19.40;99.90
9881;DHT22;4979;51.014;6.678;2022-09-09T16:41:35;19.50;99.90
9881;DHT22;4979;51.014;6.678;2022-09-09T16:44:04;19.50;99.90
9881;DHT22;4979;51.014;6.678;2022-09-09T16:46:33;19.50;99.90
9881;DHT22;4979;51.014;6.678;2022-09-09T16:49:01;19.40;99.90
9881;DHT22;4979;51.014;6.678;2022-09-09T16:51:33;19.30;99.90
9881;DHT22;4979;51.014;6.678;2022-09-09T16:54:00;19.30;99.90
9881;DHT22;4979;51.014;6.678;2022-09-09T16:56:28;19.50;99.90
9881;DHT22;4979;51.014;6.678;2022-09-09T16:58:57;19.50;99.90
9881;DHT22;4979;51.014;6.678;2022-09-09T17:01:34;19.50;99.90
9881;DHT22;4979;51.014;6.678;2022-09-09T17:04:04;19.50;99.90
9881;DHT22;4979;51.014;6.678;2022-09-09T17:06:31;19.50;99.90
9881;DHT22;4979;51.014;6.678;2022-09-09T17:09:02;19.60;99.90
9881;DHT22;4979;51.014;6.678;2022-09-09T17:11:28;19.70;99.90
9881;DHT22;4979;51.014;6.678;2022-09-09T17:13:55;19.70;99.90
9881;DHT22;4979;51.014;6.678;2022-09-09T17:16:23;19.70;99.90
9881;DHT22;4979;51.014;6.678;2022-09-09T17:18:50;19.70;99.90
9881;DHT22;4979;51.014;6.678;2022-09-09T17:21:19;19.50;99.90
9881;DHT22;4979;51.014;6.678;2022-09-09T17:23:45;19.40;99.90
9881;DHT22;4979;51.014;6.678;2022-09-09T17:26:14;19.30;99.90
9881;DHT22;4979;51.014;6.678;2022-09-09T17:28:41;19.30;99.90
9881;DHT22;4979;51.014;6.678;2022-09-09T17:31:09;19.30;99.90
9881;DHT22;4979;51.014;6.678;2022-09-09T17:33:38;19.30;99.90
9881;DHT22;4979;51.014;6.678;2022-09-09T17:36:10;19.20;99.90
9881;DHT22;4979;51.014;6.678;2022-09-09T17:38:37;19.00;99.90
9881;DHT22;4979;51.014;6.678;2022-09-09T17:41:29;19.00;99.90
9881;DHT22;4979;51.014;6.678;2022-09-09T17:43:53;18.90;99.90
9881;DHT22;4979;51.014;6.678;2022-09-09T17:46:24;18.90;99.90
9881;DHT22;4979;51.014;6.678;2022-09-09T17:48:52;18.90;99.90
9881;DHT22;4979;51.014;6.678;2022-09-09T17:51:21;18.80;99.90
9881;DHT22;4979;51.014;6.678;2022-09-09T17:53:53;18.80;99.90
9881;DHT22;4979;51.014;6.678;2022-09-09T17:56:21;18.70;99.90
9881;DHT22;4979;51.014;6.678;2022-09-09T17:58:48;18.70;99.90
9881;DHT22;4979;51.014;6.678;2022-09-09T18:01:17;18.60;99.90
9881;DHT22;4979;51.014;6.678;2022-09-09T18:03:44;18.60;99.90
9881;DHT22;4979;51.014;6.678;2022-09-09T18:06:20;18.60;99.90
9881;DHT22;4979;51.014;6.678;2022-09-09T18:08:51;18.60;99.90
9881;DHT22;4979;51.014;6.678;2022-09-09T18:11:18;18.60;99.90
9881;DHT22;4979;51.014;6.678;2022-09-09T18:13:51;18.60;99.90
9881;DHT22;4979;51.014;6.678;2022-09-09T18:16:18;18.60;99.90
9881;DHT22;4979;51.014;6.678;2022-09-09T18:18:48;18.60;99.90
9881;DHT22;4979;51.014;6.678;2022-09-09T18:21:18;18.50;99.90
9881;DHT22;4979;51.014;6.678;2022-09-09T18:23:45;18.40;99.90
9881;DHT22;4979;51.014;6.678;2022-09-09T18:26:16;18.40;99.90
9881;DHT22;4979;51.014;6.678;2022-09-09T18:28:47;18.30;99.90